Flight Track Log - Related Links

Times and Time Zones

All times are in EDT time to prevent confusion due to time zone crossing. See the RLI811 flight status page for this flight to view local times or setup timezone preferences in your user account.

Time Position Orientation Groundspeed Altitude Reporting Facility
EDT Latitude Longitude Course Direction KTS MPH feet Rate Location/Type
Wed 11:28:01 AM 42.2622 -72.7794 40° Northeast 204 235 9,500  Level Boston Center
Wed 11:29:01 AM 42.3022 -72.7264 44° Northeast 203 234 9,500  Level Boston Center
Wed 11:29:54 AM 42.3397 -72.6761 45° Northeast 221 254 9,500  Level Boston Center
Wed 11:30:54 AM 42.3772 -72.6228 46° Northeast 216 249 9,500  Level Boston Center
Wed 11:31:54 AM 42.4192 -72.5694 43° Northeast 203 234 9,500  Level Boston Center
Wed 11:32:54 AM 42.4586 -72.5161 45° Northeast 198 228 9,500  Level Boston Center
Wed 11:33:00 AM 42.5652 -72.1029 40° Northeast  Level Estimated
Wed 11:33:54 AM 42.4983 -72.4625 45° Northeast 198 228 9,500  Level Boston Center
Wed 11:34:54 AM 42.5381 -72.4092 45° Northeast 198 228 9,500  Level Boston Center
Wed 11:35:54 AM 42.5775 -72.3556 45° Northeast 198 228 9,500  Level Boston Center
Wed 11:36:54 AM 42.6169 -72.2992 46° Northeast 198 228 9,500  Level Boston Center
Wed 11:37:54 AM 42.6525 -72.2481 47° Northeast 198 228 9,500  Level Boston Center
Wed 11:38:54 AM 42.6981 -72.1886 44° Northeast 198 228 9,500  Level Boston Center
Wed 11:39:54 AM 42.7292 -72.1347 52° Northeast 198 228 9,500  Level Boston Center
Wed 11:40:54 AM 42.7708 -72.0725 48° Northeast 198 228 9,500  Level Boston Center
Wed 11:41:54 AM 42.8081 -72.0269 42° Northeast 198 228 9,500  Level Boston Center
Wed 11:42:54 AM 42.8539 -71.9728 41° Northeast 198 228 9,500  Level Boston Center
Wed 11:43:54 AM 42.8911 -71.9272 42° Northeast 193 222 9,500  Level Boston Center
Wed 11:44:53 AM 42.9283 -71.8842 40° Northeast 193 222 9,500  Level Boston Center
Wed 11:45:54 AM 42.9719 -71.8272 44° Northeast 193 222 9,500  Level Boston Center
Wed 11:46:54 AM 43.0194 -71.7700 41° Northeast 193 222 9,500  Level Boston Center
Wed 11:47:54 AM 43.0525 -71.7214 47° Northeast 193 222 9,500  Level Boston Center
Wed 11:48:54 AM 43.0917 -71.6583 50° Northeast 193 222 9,500  Level Boston Center
Wed 11:49:34 AM 43.1167 -71.6167 51° Northeast 200 230 9,500  Level KA90
Wed 11:50:34 AM 43.1500 -71.5500 56° Northeast 207 238 9,500  Level KA90
Wed 11:51:34 AM 43.1833 -71.5000 48° Northeast 201 231 9,500  Level KA90
Wed 11:52:34 AM 43.2333 -71.4500 36° Northeast 204 235 9,500  Level KA90
Wed 11:53:34 AM 43.2667 -71.3833 56° Northeast 205 236 9,500  Level KA90
Wed 11:54:34 AM 43.3167 -71.3333 36° Northeast 203 234 9,500 -200 Level KA90
Wed 11:55:34 AM 43.3500 -71.2833 47° Northeast 211 243 9,100 -300 Descending KA90
Wed 11:56:34 AM 43.4000 -71.2333 36° Northeast 217 250 8,900 -200 Descending KA90
Wed 11:58:00 AM 43.4400 -71.1375 60° Northeast  Level FlightAware Approximate
Wed 12:05:00 PM 43.6861 -70.7104 46° Northeast  Level FlightAware Approximate
Wed 12:06:00 PM 43.7249 -70.6544 47° Northeast  Level FlightAware Approximate
Wed 12:07:00 PM 43.7654 -70.6013 36° Northeast  Level FlightAware Approximate
Wed 12:08:00 PM 43.8133 -70.5667 North  Level FlightAware Approximate
Wed 12:09:00 PM 43.8538 -70.5148 45° Northeast  Level FlightAware Approximate
Wed 12:10:00 PM 43.8932 -70.4596 45° Northeast  Level FlightAware Approximate
Wed 12:11:00 PM 43.9355 -70.4087 40° Northeast  Level FlightAware Approximate
Wed 12:12:00 PM 43.9784 -70.3586 40° Northeast  Level FlightAware Approximate
Wed 12:13:00 PM 44.0189 -70.3050 47° Northeast  Level FlightAware Approximate
Wed 12:14:00 PM 44.0333 -70.2833 47° Northeast  Level FlightAware Approximate
Wed 12:15:00 PM 44.0485 -70.2835 47° Northeast  Level Estimated
Wed 12:16:00 PM 44.0485 -70.2835 47° Northeast  Level Estimated
Wed 12:17:00 PM 44.0485 -70.2835 47° Northeast  Level Estimated
Wed 12:18:00 PM 44.0485 -70.2835 47° Northeast  Level Estimated
Wed 12:19:00 PM 44.0485 -70.2835 47° Northeast  Level Estimated
Wed 12:20:00 PM 44.0485 -70.2835 47° Northeast  Level Estimated
Wed 12:21:00 PM 44.0485 -70.2835 47° Northeast  Level Estimated
Wed 12:22:00 PM 44.0485 -70.2835 47° Northeast  Level Estimated
Wed 12:23:00 PM 44.0485 -70.2835 47° Northeast  Level Estimated
Wed 12:24:00 PM 44.0485 -70.2835 47° Northeast  Level Estimated
Wed 12:25:00 PM 44.0485 -70.2835 47° Northeast  Level Estimated
Wed 12:26:00 PM 44.0485 -70.2835 47° Northeast  Level Estimated
Wed 12:27:00 PM 44.0485 -70.2835 47° Northeast  Level Estimated
Wed 12:28:00 PM 44.0485 -70.2835 47° Northeast  Level Estimated
Wed 12:29:00 PM 44.0485 -70.2835 47° Northeast  Level Estimated
Wed 12:30:00 PM 44.0485 -70.2835 47° Northeast  Level Estimated
Wed 12:31:00 PM 44.0485 -70.2835 47° Northeast  Level Estimated
Wed 12:32:00 PM 44.0485 -70.2835 47° Northeast  Level Estimated

Login

Don't have an account? Register now (free) for customized features, flight alerts, and more!